createdAt,value
2022-11-05T00:01:35.208Z,6.80
2022-11-05T00:04:20.654Z,8.07
2022-11-05T00:07:05.879Z,7.40
2022-11-05T00:09:32.883Z,7.70
2022-11-05T00:12:19.701Z,7.40
2022-11-05T00:15:05.057Z,8.17
2022-11-05T00:17:31.771Z,8.17
2022-11-05T00:19:58.317Z,7.87
2022-11-05T00:22:43.341Z,7.60
2022-11-05T00:25:18.908Z,7.83
2022-11-05T00:27:46.233Z,7.60
2022-11-05T00:30:13.558Z,7.70
2022-11-05T00:32:40.590Z,8.03
2022-11-05T00:37:52.998Z,8.17
2022-11-05T00:40:19.526Z,8.30
2022-11-05T00:43:04.913Z,7.23
2022-11-05T00:45:31.570Z,8.37
2022-11-05T00:48:16.577Z,8.70
2022-11-05T00:50:46.436Z,8.27
2022-11-05T00:53:13.477Z,7.90
2022-11-05T00:55:41.346Z,8.47
2022-11-05T00:58:09.568Z,8.93
2022-11-05T01:00:37.108Z,9.40
2022-11-05T01:03:04.902Z,8.93
2022-11-05T01:05:31.884Z,8.60
2022-11-05T01:07:58.580Z,9.40
2022-11-05T01:10:25.205Z,8.57
2022-11-05T01:12:51.914Z,8.73
2022-11-05T01:15:18.844Z,9.13
2022-11-05T01:17:45.511Z,9.13
2022-11-05T01:20:12.187Z,9.20
2022-11-05T01:22:38.782Z,9.67
2022-11-05T01:25:07.439Z,9.60
2022-11-05T01:27:35.037Z,9.53
2022-11-05T01:30:01.596Z,9.37
2022-11-05T01:32:28.148Z,9.73
2022-11-05T01:34:54.715Z,9.50
2022-11-05T01:37:21.296Z,9.33
2022-11-05T01:39:47.876Z,9.70
2022-11-05T01:42:15.259Z,10.03
2022-11-05T01:45:00.786Z,9.70
2022-11-05T01:47:27.385Z,9.90
2022-11-05T01:49:53.975Z,8.93
2022-11-05T01:52:20.486Z,9.60
2022-11-05T01:54:47.547Z,9.03
2022-11-05T01:57:14.394Z,8.67
2022-11-05T01:59:43.231Z,8.37
2022-11-05T02:02:10.057Z,8.07
2022-11-05T02:04:38.099Z,8.30
2022-11-05T02:07:04.900Z,8.13
2022-11-05T02:12:36.533Z,8.40
2022-11-05T02:18:05.806Z,7.63
2022-11-05T02:20:35.273Z,7.00
2022-11-05T02:23:20.598Z,7.13
2022-11-05T02:26:10.344Z,6.60
2022-11-05T02:28:55.363Z,6.37
2022-11-05T02:31:25.081Z,6.47
2022-11-05T02:34:07.211Z,5.97
2022-11-05T02:36:45.800Z,5.40
2022-11-05T02:39:30.925Z,5.80
2022-11-05T02:42:16.044Z,5.43
2022-11-05T02:44:54.635Z,5.63
2022-11-05T02:47:31.225Z,5.20
2022-11-05T02:50:02.766Z,5.00
2022-11-05T02:52:52.850Z,5.47
2022-11-05T02:55:33.856Z,4.60
2022-11-05T02:58:02.292Z,5.27
2022-11-05T03:00:35.234Z,4.93
2022-11-05T03:03:02.074Z,5.23
2022-11-05T03:05:30.406Z,5.43
2022-11-05T03:07:58.516Z,5.03
2022-11-05T03:10:25.470Z,4.97
2022-11-05T03:12:57.098Z,4.80
2022-11-05T03:15:30.385Z,4.97
2022-11-05T03:18:03.261Z,4.80
2022-11-05T03:20:48.677Z,5.27
2022-11-05T03:23:19.583Z,5.40
2022-11-05T03:25:47.756Z,5.57
2022-11-05T03:28:14.323Z,5.93
2022-11-05T03:30:41.172Z,6.33
2022-11-05T03:33:09.441Z,6.67
2022-11-05T03:35:40.011Z,6.10
2022-11-05T03:38:07.242Z,6.20
2022-11-05T03:40:34.271Z,6.07
2022-11-05T03:43:00.782Z,6.03
2022-11-05T03:45:36.917Z,6.13
2022-11-05T03:48:03.497Z,6.13
2022-11-05T03:50:40.941Z,5.63
2022-11-05T03:53:15.677Z,5.70
2022-11-05T03:55:46.245Z,6.80
2022-11-05T03:58:13.223Z,6.40
2022-11-05T04:00:39.994Z,6.03
2022-11-05T04:03:06.665Z,6.33
2022-11-05T04:05:33.223Z,6.17
2022-11-05T04:08:18.661Z,5.60
2022-11-05T04:11:03.956Z,5.00
2022-11-05T04:13:30.710Z,4.90
2022-11-05T04:16:15.777Z,5.43
2022-11-05T04:18:42.519Z,5.40
2022-11-05T04:21:27.749Z,5.33
2022-11-05T04:24:09.485Z,5.13
2022-11-05T04:26:40.077Z,5.17
2022-11-05T04:29:25.225Z,5.27
2022-11-05T04:31:51.819Z,5.20
2022-11-05T04:34:19.103Z,5.37
2022-11-05T04:36:46.214Z,5.63
2022-11-05T04:39:12.738Z,5.57
2022-11-05T04:41:39.321Z,6.00
2022-11-05T04:44:06.006Z,5.90
2022-11-05T04:46:32.634Z,5.50
2022-11-05T04:48:59.153Z,6.50
2022-11-05T04:51:27.324Z,6.27
2022-11-05T04:53:53.958Z,6.33
2022-11-05T04:56:21.512Z,7.00
2022-11-05T04:58:48.102Z,6.77
2022-11-05T05:01:18.636Z,6.50
2022-11-05T05:03:48.718Z,6.93
2022-11-05T05:06:15.396Z,6.87
2022-11-05T05:08:42.016Z,6.73
2022-11-05T05:11:09.475Z,6.80
2022-11-05T05:13:36.116Z,7.00
2022-11-05T05:16:09.353Z,7.03
2022-11-05T05:18:35.941Z,6.73
2022-11-05T05:21:21.155Z,6.87
2022-11-05T05:23:48.395Z,7.17
2022-11-05T05:26:17.918Z,7.60
2022-11-05T05:28:44.615Z,7.03
2022-11-05T05:31:11.223Z,7.53
2022-11-05T05:33:37.830Z,7.07
2022-11-05T05:36:10.014Z,7.33
2022-11-05T05:38:37.958Z,7.73
2022-11-05T05:41:04.563Z,7.70
2022-11-05T05:43:31.731Z,7.20
2022-11-05T05:46:02.192Z,7.33
2022-11-05T05:48:29.029Z,6.70
2022-11-05T05:50:59.247Z,7.57
2022-11-05T05:53:25.919Z,7.23
2022-11-05T05:55:53.550Z,8.13
2022-11-05T05:58:23.227Z,8.63
2022-11-05T06:00:49.838Z,8.10
2022-11-05T06:03:16.450Z,8.33
2022-11-05T06:05:43.262Z,9.07
2022-11-05T06:08:09.848Z,8.23
2022-11-05T06:10:36.610Z,8.27
2022-11-05T06:13:03.381Z,8.40
2022-11-05T06:15:35.497Z,8.20
2022-11-05T06:18:02.713Z,7.47
2022-11-05T06:20:29.276Z,7.07
2022-11-05T06:22:58.812Z,7.17
2022-11-05T06:25:25.476Z,6.03
2022-11-05T06:27:52.550Z,7.50
2022-11-05T06:30:19.200Z,6.63
2022-11-05T06:35:29.699Z,6.90
2022-11-05T06:38:02.449Z,6.67
2022-11-05T06:40:29.585Z,6.60
2022-11-05T06:42:56.277Z,6.83
2022-11-05T06:48:07.054Z,6.27
2022-11-05T06:50:33.939Z,6.53
2022-11-05T06:53:01.100Z,6.77
2022-11-05T06:55:29.050Z,6.50
2022-11-05T06:57:56.216Z,6.40
2022-11-05T07:00:22.988Z,7.00
2022-11-05T07:02:49.647Z,7.30
2022-11-05T07:05:16.303Z,7.20
2022-11-05T07:07:43.671Z,7.83
2022-11-05T07:10:14.469Z,7.17
2022-11-05T07:12:41.143Z,7.57
2022-11-05T07:15:08.193Z,8.30
2022-11-05T07:17:34.909Z,7.73
2022-11-05T07:20:01.573Z,8.53
2022-11-05T07:22:28.231Z,9.13
2022-11-05T07:24:54.784Z,9.00
2022-11-05T07:27:21.716Z,9.03
2022-11-05T07:29:48.289Z,9.53
2022-11-05T07:32:15.085Z,10.13
2022-11-05T07:34:41.787Z,10.10
2022-11-05T07:37:08.729Z,9.50
2022-11-05T07:39:35.559Z,9.20
2022-11-05T07:42:02.133Z,9.13
2022-11-05T07:44:33.353Z,8.70
2022-11-05T07:47:00.000Z,8.13
2022-11-05T07:49:26.630Z,8.63
2022-11-05T07:51:53.728Z,8.57
2022-11-05T07:54:20.303Z,8.80
2022-11-05T07:56:48.540Z,9.50
2022-11-05T07:59:15.258Z,8.73
2022-11-05T08:01:42.271Z,10.27
2022-11-05T08:04:08.994Z,10.00
2022-11-05T08:06:35.953Z,9.57
2022-11-05T08:09:02.484Z,9.37
2022-11-05T08:11:29.136Z,10.60
2022-11-05T08:13:55.828Z,11.60
2022-11-05T08:16:22.473Z,11.17
2022-11-05T08:18:51.844Z,13.13
2022-11-05T08:21:18.416Z,13.47
2022-11-05T08:23:45.334Z,14.80
2022-11-05T08:26:11.982Z,14.33
2022-11-05T08:28:38.532Z,13.60
2022-11-05T08:31:05.254Z,13.33
2022-11-05T08:33:32.244Z,12.90
2022-11-05T08:36:01.721Z,13.50
2022-11-05T08:38:29.257Z,13.63
2022-11-05T08:40:56.842Z,13.53
2022-11-05T08:43:23.500Z,14.20
2022-11-05T08:45:50.126Z,13.80
2022-11-05T08:48:17.339Z,14.00
2022-11-05T08:50:44.825Z,14.17
2022-11-05T08:53:11.963Z,15.27
2022-11-05T08:55:40.021Z,14.93
2022-11-05T08:58:07.827Z,15.37
2022-11-05T09:00:35.050Z,14.43
2022-11-05T09:03:02.164Z,13.87
2022-11-05T09:05:29.307Z,13.10
2022-11-05T09:08:00.789Z,12.77
2022-11-05T09:10:29.231Z,11.57
2022-11-05T09:12:56.008Z,12.60
2022-11-05T09:15:23.549Z,11.27
2022-11-05T09:17:50.420Z,10.83
2022-11-05T09:20:17.354Z,11.43
2022-11-05T09:22:44.516Z,9.77
2022-11-05T09:25:11.279Z,10.17
2022-11-05T09:27:37.877Z,10.30
2022-11-05T09:30:04.739Z,10.93
2022-11-05T09:32:31.820Z,10.13
2022-11-05T09:35:00.415Z,8.93
2022-11-05T09:37:28.436Z,7.70
2022-11-05T09:39:55.157Z,9.97
2022-11-05T09:42:22.934Z,6.77
2022-11-05T09:44:51.432Z,5.67
2022-11-05T09:47:19.695Z,4.97
2022-11-05T09:49:48.816Z,4.20
2022-11-05T09:52:17.660Z,4.60
2022-11-05T09:54:44.529Z,3.87
2022-11-05T09:57:16.213Z,3.60
2022-11-05T09:59:47.225Z,3.90
2022-11-05T10:02:14.007Z,3.40
2022-11-05T10:04:40.633Z,3.40
2022-11-05T10:07:07.293Z,3.77
2022-11-05T10:09:38.161Z,3.10
2022-11-05T10:12:08.726Z,10.50
2022-11-05T10:14:46.873Z,3.83
2022-11-05T10:17:18.159Z,3.20
2022-11-05T10:19:53.630Z,3.03
2022-11-05T10:22:20.320Z,3.00
2022-11-05T10:24:47.888Z,2.70
2022-11-05T10:27:24.684Z,2.60
2022-11-05T10:29:51.490Z,2.93
2022-11-05T10:32:27.411Z,2.40
2022-11-05T10:34:54.247Z,2.60
2022-11-05T10:37:20.830Z,2.17
2022-11-05T10:39:49.059Z,1.87
2022-11-05T10:42:21.824Z,2.60
2022-11-05T10:44:54.782Z,2.40
2022-11-05T10:47:21.481Z,2.00
2022-11-05T10:49:59.081Z,2.17
2022-11-05T10:52:33.543Z,1.90
2022-11-05T10:55:00.924Z,1.80
2022-11-05T10:57:37.727Z,1.60
2022-11-05T11:00:18.630Z,1.90
2022-11-05T11:02:49.696Z,1.70
2022-11-05T11:05:21.602Z,2.90
2022-11-05T11:07:56.098Z,3.10
2022-11-05T11:10:22.841Z,2.87
2022-11-05T11:12:49.925Z,3.03
2022-11-05T11:15:27.575Z,2.73
2022-11-05T11:17:55.074Z,2.90
2022-11-05T11:20:23.599Z,2.20
2022-11-05T11:22:58.808Z,1.40
2022-11-05T11:25:26.151Z,1.70
2022-11-05T11:27:52.737Z,1.50
2022-11-05T11:30:19.686Z,1.50
2022-11-05T11:32:46.433Z,1.60
2022-11-05T11:35:20.558Z,1.63
2022-11-05T11:37:47.218Z,1.50
2022-11-05T11:40:16.240Z,2.10
2022-11-05T11:42:45.513Z,2.40
2022-11-05T11:45:19.616Z,3.10
2022-11-05T11:47:47.109Z,4.50
2022-11-05T11:50:32.460Z,5.50
2022-11-05T11:53:22.212Z,5.20
2022-11-05T11:55:57.795Z,4.90
2022-11-05T11:58:25.920Z,4.50
2022-11-05T12:00:56.104Z,3.77
2022-11-05T12:03:29.426Z,3.70
2022-11-05T12:06:05.549Z,4.17
2022-11-05T12:08:32.247Z,3.90
2022-11-05T12:11:08.167Z,2.70
2022-11-05T12:13:44.292Z,2.80
2022-11-05T12:16:16.012Z,2.43
2022-11-05T12:18:48.898Z,2.60
2022-11-05T12:21:47.725Z,2.20
2022-11-05T12:26:57.422Z,2.07
2022-11-05T12:29:35.385Z,1.80
2022-11-05T12:32:15.282Z,2.80
2022-11-05T12:37:44.689Z,1.80
2022-11-05T12:40:17.510Z,1.70
2022-11-05T12:42:53.136Z,2.07
2022-11-05T12:45:19.794Z,2.20
2022-11-05T12:48:12.762Z,2.30
2022-11-05T12:50:45.860Z,1.97
2022-11-05T12:53:31.297Z,2.33
2022-11-05T12:55:58.959Z,2.97
2022-11-05T12:58:27.205Z,2.83
2022-11-05T13:01:05.322Z,3.57
2022-11-05T13:03:38.157Z,2.40
2022-11-05T13:06:06.340Z,2.40
2022-11-05T13:08:37.827Z,1.83
2022-11-05T13:11:14.218Z,2.37
2022-11-05T13:13:46.107Z,2.57
2022-11-05T13:16:13.735Z,2.57
2022-11-05T13:18:42.790Z,2.50
2022-11-05T13:21:09.614Z,1.43
2022-11-05T13:23:59.745Z,1.90
2022-11-05T13:26:26.486Z,2.50
2022-11-05T13:28:57.611Z,3.30
2022-11-05T13:31:31.954Z,2.90
2022-11-05T13:33:59.096Z,3.00
2022-11-05T13:36:45.522Z,2.30
2022-11-05T13:39:16.863Z,2.57
2022-11-05T13:42:01.890Z,2.77
2022-11-05T13:44:47.183Z,2.57
2022-11-05T13:47:32.317Z,3.03
2022-11-05T13:49:59.461Z,2.20
2022-11-05T13:52:33.608Z,2.30
2022-11-05T13:55:03.652Z,3.73
2022-11-05T13:57:39.697Z,2.23
2022-11-05T14:00:15.667Z,2.57
2022-11-05T14:02:43.929Z,3.97
2022-11-05T14:05:29.453Z,3.43
2022-11-05T14:07:57.029Z,3.40
2022-11-05T14:10:45.232Z,4.07
2022-11-05T14:13:23.974Z,4.53
2022-11-05T14:16:00.023Z,5.13
2022-11-05T14:18:42.887Z,4.70
2022-11-05T14:21:38.541Z,3.37
2022-11-05T14:24:25.185Z,3.37
2022-11-05T14:27:11.650Z,2.70
2022-11-05T14:30:04.754Z,3.10
2022-11-05T14:32:45.462Z,3.47
2022-11-05T14:35:18.062Z,3.77
2022-11-05T14:37:58.755Z,3.63
2022-11-05T14:40:35.599Z,3.47
2022-11-05T14:43:12.374Z,3.83
2022-11-05T14:45:40.161Z,5.07
2022-11-05T14:48:07.861Z,5.73
2022-11-05T14:50:38.873Z,7.83
2022-11-05T14:53:10.532Z,8.47
2022-11-05T14:55:38.566Z,8.27
2022-11-05T14:58:06.863Z,8.07
2022-11-05T15:00:36.761Z,6.83
2022-11-05T15:03:04.717Z,6.60
2022-11-05T15:05:31.422Z,6.43
2022-11-05T15:07:58.320Z,4.13
2022-11-05T15:10:31.790Z,4.90
2022-11-05T15:13:04.888Z,3.83
2022-11-05T15:15:32.302Z,4.03
2022-11-05T15:18:05.025Z,4.73
2022-11-05T15:20:39.931Z,5.70
2022-11-05T15:23:09.528Z,6.27
2022-11-05T15:25:53.398Z,5.60
2022-11-05T15:28:26.727Z,4.20
2022-11-05T15:31:01.546Z,4.87
2022-11-05T15:33:28.347Z,4.67
2022-11-05T15:35:55.492Z,5.30
2022-11-05T15:38:25.133Z,5.07
2022-11-05T15:40:56.824Z,7.03
2022-11-05T15:43:23.522Z,6.87
2022-11-05T15:46:03.752Z,6.80
2022-11-05T15:48:30.510Z,6.57
2022-11-05T15:50:57.392Z,5.83
2022-11-05T15:56:38.729Z,5.17
2022-11-05T15:59:20.935Z,5.17
2022-11-05T16:01:58.341Z,5.10
2022-11-05T16:04:29.201Z,6.93
2022-11-05T16:07:17.434Z,9.73
2022-11-05T16:09:51.174Z,12.40
2022-11-05T16:12:21.433Z,17.87
2022-11-05T16:14:56.948Z,14.83
2022-11-05T16:17:24.727Z,17.87
2022-11-05T16:19:51.547Z,16.20
2022-11-05T16:22:18.468Z,17.27
2022-11-05T16:24:45.328Z,16.80
2022-11-05T16:27:19.303Z,16.50
2022-11-05T16:29:50.101Z,20.90
2022-11-05T16:32:17.569Z,15.00
2022-11-05T16:34:48.334Z,19.27
2022-11-05T16:37:16.107Z,21.60
2022-11-05T16:39:42.854Z,19.43
2022-11-05T16:42:26.294Z,21.23
2022-11-05T16:44:53.826Z,18.33
2022-11-05T16:47:20.660Z,14.07
2022-11-05T16:49:47.705Z,13.40
2022-11-05T16:52:23.590Z,12.53
2022-11-05T16:54:51.080Z,13.17
2022-11-05T16:57:24.914Z,9.57
2022-11-05T16:59:52.771Z,9.27
2022-11-05T17:02:19.685Z,9.10
2022-11-05T17:04:46.776Z,9.50
2022-11-05T17:07:13.509Z,8.30
2022-11-05T17:09:40.292Z,9.17
2022-11-05T17:12:08.826Z,9.00
2022-11-05T17:14:36.614Z,8.83
2022-11-05T17:17:03.684Z,9.63
2022-11-05T17:19:30.680Z,7.63
2022-11-05T17:21:57.359Z,8.13
2022-11-05T17:24:23.973Z,8.90
2022-11-05T17:26:50.536Z,10.50
2022-11-05T17:29:17.610Z,10.50
2022-11-05T17:31:44.400Z,10.03
2022-11-05T17:34:11.115Z,8.70
2022-11-05T17:36:37.976Z,8.97
2022-11-05T17:39:07.690Z,9.27
2022-11-05T17:41:35.669Z,8.33
2022-11-05T17:44:02.468Z,8.30
2022-11-05T17:46:31.331Z,7.47
2022-11-05T17:48:58.027Z,7.63
2022-11-05T17:51:24.857Z,8.00
2022-11-05T17:53:51.757Z,7.90
2022-11-05T17:56:32.091Z,8.27
2022-11-05T17:59:01.692Z,7.90
2022-11-05T18:01:32.763Z,8.37
2022-11-05T18:04:03.807Z,7.50
2022-11-05T18:06:35.288Z,10.37
2022-11-05T18:09:02.062Z,8.00
2022-11-05T18:11:28.692Z,7.53
2022-11-05T18:13:55.614Z,9.37
2022-11-05T18:16:22.231Z,8.50
2022-11-05T18:18:49.395Z,8.73
2022-11-05T18:21:16.188Z,8.30
2022-11-05T18:23:42.781Z,8.97
2022-11-05T18:26:10.226Z,8.47
2022-11-05T18:28:37.775Z,7.93
2022-11-05T18:31:07.306Z,8.83
2022-11-05T18:33:36.754Z,9.43
2022-11-05T18:36:04.808Z,9.10
2022-11-05T18:38:32.165Z,8.90
2022-11-05T18:40:58.852Z,9.33
2022-11-05T18:43:25.552Z,8.00
2022-11-05T18:45:56.097Z,6.70
2022-11-05T18:48:22.827Z,7.40
2022-11-05T18:50:49.634Z,7.97
2022-11-05T18:53:16.867Z,8.80
2022-11-05T18:55:43.665Z,9.33
2022-11-05T18:58:10.990Z,11.90
2022-11-05T19:00:41.298Z,9.40
2022-11-05T19:03:09.603Z,11.37
2022-11-05T19:05:36.556Z,9.33
2022-11-05T19:08:03.319Z,11.20
2022-11-05T19:10:29.985Z,11.47
2022-11-05T19:12:56.850Z,12.87
2022-11-05T19:15:23.509Z,11.77
2022-11-05T19:17:50.328Z,14.03
2022-11-05T19:20:18.095Z,16.80
2022-11-05T19:22:46.763Z,13.40
2022-11-05T19:25:15.572Z,9.80
2022-11-05T19:27:43.804Z,11.70
2022-11-05T19:30:10.584Z,10.83
2022-11-05T19:32:37.328Z,10.27
2022-11-05T19:35:05.778Z,9.37
2022-11-05T19:37:32.496Z,10.30
2022-11-05T19:39:59.223Z,10.47
2022-11-05T19:42:26.456Z,9.97
2022-11-05T19:44:53.060Z,10.67
2022-11-05T19:47:21.206Z,9.60
2022-11-05T19:49:47.837Z,10.10
2022-11-05T19:52:16.866Z,11.17
2022-11-05T19:54:43.447Z,11.07
2022-11-05T19:57:10.329Z,11.93
2022-11-05T19:59:37.366Z,11.47
2022-11-05T20:02:04.655Z,10.53
2022-11-05T20:04:32.593Z,10.57
2022-11-05T20:07:01.806Z,10.70
2022-11-05T20:09:28.386Z,10.20
2022-11-05T20:14:40.662Z,9.77
2022-11-05T20:17:07.246Z,8.37
2022-11-05T20:19:34.170Z,9.43
2022-11-05T20:22:01.502Z,10.00
2022-11-05T20:24:28.257Z,9.20
2022-11-05T20:26:54.957Z,9.17
2022-11-05T20:29:22.153Z,9.70
2022-11-05T20:31:51.064Z,8.93
2022-11-05T20:34:17.957Z,7.10
2022-11-05T20:36:45.814Z,8.10
2022-11-05T20:39:13.218Z,7.23
2022-11-05T20:41:39.976Z,7.33
2022-11-05T20:44:06.738Z,7.73
2022-11-05T20:46:33.872Z,6.80
2022-11-05T20:49:00.502Z,5.83
2022-11-05T20:51:27.446Z,8.23
2022-11-05T20:53:54.982Z,8.27
2022-11-05T20:56:25.804Z,9.00
2022-11-05T20:58:57.295Z,7.77
2022-11-05T21:01:24.209Z,7.40
2022-11-05T21:03:50.879Z,7.97
2022-11-05T21:06:22.433Z,8.17
2022-11-05T21:08:50.128Z,8.47
2022-11-05T21:11:17.408Z,9.07
2022-11-05T21:13:44.595Z,9.20
2022-11-05T21:16:16.859Z,8.77
2022-11-05T21:21:30.130Z,8.60
2022-11-05T21:23:57.009Z,7.60
2022-11-05T21:26:23.628Z,7.67
2022-11-05T21:28:50.172Z,7.77
2022-11-05T21:31:16.846Z,8.67
2022-11-05T21:33:43.459Z,7.73
2022-11-05T21:36:10.889Z,8.53
2022-11-05T21:38:37.773Z,7.93
2022-11-05T21:41:04.617Z,7.53
2022-11-05T21:43:31.340Z,6.90
2022-11-05T21:46:00.559Z,6.90
2022-11-05T21:48:27.342Z,7.07
2022-11-05T21:51:12.887Z,7.23
2022-11-05T21:54:01.337Z,7.33
2022-11-05T21:56:46.555Z,7.10
2022-11-05T21:59:35.325Z,7.30
2022-11-05T22:02:03.283Z,7.33
2022-11-05T22:04:30.592Z,8.07
2022-11-05T22:06:57.250Z,7.27
2022-11-05T22:09:24.592Z,7.03
2022-11-05T22:11:51.925Z,7.30
2022-11-05T22:14:18.555Z,7.80
2022-11-05T22:16:45.627Z,7.27
2022-11-05T22:19:12.803Z,7.17
2022-11-05T22:21:39.640Z,7.30
2022-11-05T22:24:06.604Z,7.13
2022-11-05T22:26:33.329Z,7.07
2022-11-05T22:28:59.892Z,6.63
2022-11-05T22:31:28.559Z,5.70
2022-11-05T22:33:58.607Z,6.37
2022-11-05T22:36:25.641Z,6.63
2022-11-05T22:38:52.363Z,6.80
2022-11-05T22:41:19.695Z,7.23
2022-11-05T22:43:47.754Z,6.60
2022-11-05T22:46:21.666Z,6.80
2022-11-05T22:48:49.596Z,6.80
2022-11-05T22:51:17.139Z,6.70
2022-11-05T22:53:45.290Z,6.80
2022-11-05T22:56:12.895Z,5.80
2022-11-05T22:58:39.780Z,5.80
2022-11-05T23:01:06.780Z,6.90
2022-11-05T23:03:33.641Z,6.33
2022-11-05T23:06:02.806Z,7.33
2022-11-05T23:08:48.342Z,6.13
2022-11-05T23:11:38.677Z,6.33
2022-11-05T23:14:06.374Z,7.20
2022-11-05T23:16:51.705Z,6.43
2022-11-05T23:19:37.269Z,6.37
2022-11-05T23:22:22.576Z,5.77
2022-11-05T23:24:49.290Z,5.90
2022-11-05T23:27:15.816Z,5.67
2022-11-05T23:29:42.465Z,5.73
2022-11-05T23:32:24.473Z,5.53
2022-11-05T23:34:54.666Z,5.53
2022-11-05T23:37:40.162Z,4.90
2022-11-05T23:40:08.297Z,5.17
2022-11-05T23:42:53.707Z,5.67
2022-11-05T23:45:38.861Z,4.77
2022-11-05T23:48:17.963Z,4.87
2022-11-05T23:50:50.818Z,5.17
2022-11-05T23:53:17.579Z,5.60
2022-11-05T23:55:44.081Z,4.97
2022-11-05T23:58:11.444Z,4.73
